sensor_id;sensor_type;location;lat;lon;timestamp;temperature;humidity
9482;DHT22;4779;48.062;11.672;2023-08-07T00:00:05;12.30;99.90
9482;DHT22;4779;48.062;11.672;2023-08-07T00:02:34;12.30;99.90
9482;DHT22;4779;48.062;11.672;2023-08-07T00:05:01;12.30;99.90
9482;DHT22;4779;48.062;11.672;2023-08-07T00:07:28;12.20;99.90
9482;DHT22;4779;48.062;11.672;2023-08-07T00:09:55;12.30;99.90
9482;DHT22;4779;48.062;11.672;2023-08-07T00:12:24;12.30;99.90
9482;DHT22;4779;48.062;11.672;2023-08-07T00:14:51;12.20;99.90
9482;DHT22;4779;48.062;11.672;2023-08-07T00:17:18;12.20;99.90
9482;DHT22;4779;48.062;11.672;2023-08-07T00:19:45;12.20;99.90
9482;DHT22;4779;48.062;11.672;2023-08-07T00:22:12;12.20;99.90
9482;DHT22;4779;48.062;11.672;2023-08-07T00:24:39;12.20;99.90
9482;DHT22;4779;48.062;11.672;2023-08-07T00:27:06;12.20;99.90
9482;DHT22;4779;48.062;11.672;2023-08-07T00:29:37;12.10;99.90
9482;DHT22;4779;48.062;11.672;2023-08-07T00:32:04;12.00;99.90
9482;DHT22;4779;48.062;11.672;2023-08-07T00:34:31;12.00;99.90
9482;DHT22;4779;48.062;11.672;2023-08-07T00:36:58;12.00;99.90
9482;DHT22;4779;48.062;11.672;2023-08-07T00:39:27;12.10;99.90
9482;DHT22;4779;48.062;11.672;2023-08-07T00:41:54;12.00;99.90
9482;DHT22;4779;48.062;11.672;2023-08-07T00:44:21;12.00;99.90
9482;DHT22;4779;48.062;11.672;2023-08-07T00:46:51;12.00;99.90
9482;DHT22;4779;48.062;11.672;2023-08-07T00:49:19;12.00;99.90
9482;DHT22;4779;48.062;11.672;2023-08-07T00:51:46;11.90;99.90
9482;DHT22;4779;48.062;11.672;2023-08-07T00:54:15;11.90;99.90
9482;DHT22;4779;48.062;11.672;2023-08-07T00:56:45;11.90;99.90
9482;DHT22;4779;48.062;11.672;2023-08-07T00:59:13;11.80;99.90
9482;DHT22;4779;48.062;11.672;2023-08-07T01:01:40;11.80;99.90
9482;DHT22;4779;48.062;11.672;2023-08-07T01:04:09;11.70;99.90
9482;DHT22;4779;48.062;11.672;2023-08-07T01:06:36;11.60;99.90
9482;DHT22;4779;48.062;11.672;2023-08-07T01:09:03;11.50;99.90
9482;DHT22;4779;48.062;11.672;2023-08-07T01:11:36;11.40;99.90
9482;DHT22;4779;48.062;11.672;2023-08-07T01:14:10;11.30;99.90
9482;DHT22;4779;48.062;11.672;2023-08-07T01:16:44;11.30;99.90
9482;DHT22;4779;48.062;11.672;2023-08-07T01:19:19;11.20;99.90
9482;DHT22;4779;48.062;11.672;2023-08-07T01:22:03;11.10;99.90
9482;DHT22;4779;48.062;11.672;2023-08-07T01:24:30;11.10;99.90
9482;DHT22;4779;48.062;11.672;2023-08-07T01:27:00;11.10;99.90
9482;DHT22;4779;48.062;11.672;2023-08-07T01:29:39;11.10;99.90
9482;DHT22;4779;48.062;11.672;2023-08-07T01:32:10;11.10;99.90
9482;DHT22;4779;48.062;11.672;2023-08-07T01:34:39;11.10;99.90
9482;DHT22;4779;48.062;11.672;2023-08-07T01:37:10;11.00;99.90
9482;DHT22;4779;48.062;11.672;2023-08-07T01:39:39;11.00;99.90
9482;DHT22;4779;48.062;11.672;2023-08-07T01:42:08;11.00;99.90
9482;DHT22;4779;48.062;11.672;2023-08-07T01:44:36;10.90;99.90
9482;DHT22;4779;48.062;11.672;2023-08-07T01:47:04;11.00;99.90
9482;DHT22;4779;48.062;11.672;2023-08-07T01:49:31;10.90;99.90
9482;DHT22;4779;48.062;11.672;2023-08-07T01:51:58;10.90;99.90
9482;DHT22;4779;48.062;11.672;2023-08-07T01:54:27;10.90;99.90
9482;DHT22;4779;48.062;11.672;2023-08-07T01:56:54;10.90;99.90
9482;DHT22;4779;48.062;11.672;2023-08-07T01:59:21;10.90;99.90
9482;DHT22;4779;48.062;11.672;2023-08-07T02:01:48;10.90;99.90
9482;DHT22;4779;48.062;11.672;2023-08-07T02:04:15;10.80;99.90
9482;DHT22;4779;48.062;11.672;2023-08-07T02:06:42;10.70;99.90
9482;DHT22;4779;48.062;11.672;2023-08-07T02:09:09;10.60;99.90
9482;DHT22;4779;48.062;11.672;2023-08-07T02:11:37;10.70;99.90
9482;DHT22;4779;48.062;11.672;2023-08-07T02:14:04;10.70;99.90
9482;DHT22;4779;48.062;11.672;2023-08-07T02:16:31;10.60;99.90
9482;DHT22;4779;48.062;11.672;2023-08-07T02:18:58;10.60;99.90
9482;DHT22;4779;48.062;11.672;2023-08-07T02:21:25;10.60;99.90
9482;DHT22;4779;48.062;11.672;2023-08-07T02:23:52;10.50;99.90
9482;DHT22;4779;48.062;11.672;2023-08-07T02:26:19;10.50;99.90
9482;DHT22;4779;48.062;11.672;2023-08-07T02:28:48;10.60;99.90
9482;DHT22;4779;48.062;11.672;2023-08-07T02:31:15;10.50;99.90
9482;DHT22;4779;48.062;11.672;2023-08-07T02:33:42;10.60;99.90
9482;DHT22;4779;48.062;11.672;2023-08-07T02:36:09;10.50;99.90
9482;DHT22;4779;48.062;11.672;2023-08-07T02:38:36;10.60;99.90
9482;DHT22;4779;48.062;11.672;2023-08-07T02:41:03;10.60;99.90
9482;DHT22;4779;48.062;11.672;2023-08-07T02:43:30;10.60;99.90
9482;DHT22;4779;48.062;11.672;2023-08-07T02:46:00;10.50;99.90
9482;DHT22;4779;48.062;11.672;2023-08-07T02:48:27;10.60;99.90
9482;DHT22;4779;48.062;11.672;2023-08-07T02:50:54;10.70;99.90
9482;DHT22;4779;48.062;11.672;2023-08-07T02:53:21;10.60;99.90
9482;DHT22;4779;48.062;11.672;2023-08-07T02:55:48;10.70;99.90
9482;DHT22;4779;48.062;11.672;2023-08-07T02:58:15;10.70;99.90
9482;DHT22;4779;48.062;11.672;2023-08-07T03:00:42;10.70;99.90
9482;DHT22;4779;48.062;11.672;2023-08-07T03:03:10;10.70;99.90
9482;DHT22;4779;48.062;11.672;2023-08-07T03:05:37;10.70;99.90
9482;DHT22;4779;48.062;11.672;2023-08-07T03:08:04;10.70;99.90
9482;DHT22;4779;48.062;11.672;2023-08-07T03:10:31;10.70;99.90
9482;DHT22;4779;48.062;11.672;2023-08-07T03:12:58;10.80;99.90
9482;DHT22;4779;48.062;11.672;2023-08-07T03:15:25;10.80;99.90
9482;DHT22;4779;48.062;11.672;2023-08-07T03:17:52;10.80;99.90
9482;DHT22;4779;48.062;11.672;2023-08-07T03:20:20;10.80;99.90
9482;DHT22;4779;48.062;11.672;2023-08-07T03:22:47;10.80;99.90
9482;DHT22;4779;48.062;11.672;2023-08-07T03:25:15;10.80;99.90
9482;DHT22;4779;48.062;11.672;2023-08-07T03:27:42;10.80;99.90
9482;DHT22;4779;48.062;11.672;2023-08-07T03:30:09;10.80;99.90
9482;DHT22;4779;48.062;11.672;2023-08-07T03:32:37;10.80;99.90
9482;DHT22;4779;48.062;11.672;2023-08-07T03:35:04;10.80;99.90
9482;DHT22;4779;48.062;11.672;2023-08-07T03:37:33;10.90;99.90
9482;DHT22;4779;48.062;11.672;2023-08-07T03:40:00;10.90;99.90
9482;DHT22;4779;48.062;11.672;2023-08-07T03:42:27;10.90;99.90
9482;DHT22;4779;48.062;11.672;2023-08-07T03:44:54;10.90;99.90
9482;DHT22;4779;48.062;11.672;2023-08-07T03:47:21;10.80;99.90
9482;DHT22;4779;48.062;11.672;2023-08-07T03:49:48;10.80;99.90
9482;DHT22;4779;48.062;11.672;2023-08-07T03:52:15;10.80;99.90
9482;DHT22;4779;48.062;11.672;2023-08-07T03:54:45;10.90;99.90
9482;DHT22;4779;48.062;11.672;2023-08-07T03:57:12;10.90;99.90
9482;DHT22;4779;48.062;11.672;2023-08-07T03:59:39;10.90;99.90
9482;DHT22;4779;48.062;11.672;2023-08-07T04:02:06;10.90;99.90
9482;DHT22;4779;48.062;11.672;2023-08-07T04:04:33;11.00;99.90
9482;DHT22;4779;48.062;11.672;2023-08-07T04:07:00;11.00;99.90
9482;DHT22;4779;48.062;11.672;2023-08-07T04:09:27;10.90;99.90
9482;DHT22;4779;48.062;11.672;2023-08-07T04:11:55;10.90;99.90
9482;DHT22;4779;48.062;11.672;2023-08-07T04:14:22;11.00;99.90
9482;DHT22;4779;48.062;11.672;2023-08-07T04:16:49;10.90;99.90
9482;DHT22;4779;48.062;11.672;2023-08-07T04:19:16;10.90;99.90
9482;DHT22;4779;48.062;11.672;2023-08-07T04:21:44;10.90;99.90
9482;DHT22;4779;48.062;11.672;2023-08-07T04:24:11;11.00;99.90
9482;DHT22;4779;48.062;11.672;2023-08-07T04:26:38;11.10;99.90
9482;DHT22;4779;48.062;11.672;2023-08-07T04:29:06;11.00;99.90
9482;DHT22;4779;48.062;11.672;2023-08-07T04:31:34;11.00;99.90
9482;DHT22;4779;48.062;11.672;2023-08-07T04:34:01;11.00;99.90
9482;DHT22;4779;48.062;11.672;2023-08-07T04:36:28;11.00;99.90
9482;DHT22;4779;48.062;11.672;2023-08-07T04:38:55;11.10;99.90
9482;DHT22;4779;48.062;11.672;2023-08-07T04:41:22;11.00;99.90
9482;DHT22;4779;48.062;11.672;2023-08-07T04:43:49;11.10;99.90
9482;DHT22;4779;48.062;11.672;2023-08-07T04:46:18;11.10;99.90
9482;DHT22;4779;48.062;11.672;2023-08-07T04:48:45;11.10;99.90
9482;DHT22;4779;48.062;11.672;2023-08-07T04:51:13;11.10;99.90
9482;DHT22;4779;48.062;11.672;2023-08-07T04:53:41;11.10;99.90
9482;DHT22;4779;48.062;11.672;2023-08-07T04:56:08;11.10;99.90
9482;DHT22;4779;48.062;11.672;2023-08-07T04:58:35;11.10;99.90
9482;DHT22;4779;48.062;11.672;2023-08-07T05:01:02;11.10;99.90
9482;DHT22;4779;48.062;11.672;2023-08-07T05:03:30;11.10;99.90
9482;DHT22;4779;48.062;11.672;2023-08-07T05:06:00;11.10;99.90
9482;DHT22;4779;48.062;11.672;2023-08-07T05:08:28;11.10;99.90
9482;DHT22;4779;48.062;11.672;2023-08-07T05:11:24;11.20;99.90
9482;DHT22;4779;48.062;11.672;2023-08-07T05:13:51;11.10;99.90
9482;DHT22;4779;48.062;11.672;2023-08-07T05:16:18;11.20;99.90
9482;DHT22;4779;48.062;11.672;2023-08-07T05:18:47;11.20;99.90
9482;DHT22;4779;48.062;11.672;2023-08-07T05:21:14;11.20;99.90
9482;DHT22;4779;48.062;11.672;2023-08-07T05:23:41;11.20;99.90
9482;DHT22;4779;48.062;11.672;2023-08-07T05:26:08;11.20;99.90
9482;DHT22;4779;48.062;11.672;2023-08-07T05:28:35;11.30;99.90
9482;DHT22;4779;48.062;11.672;2023-08-07T05:31:02;11.30;99.90
9482;DHT22;4779;48.062;11.672;2023-08-07T05:33:28;11.30;99.90
9482;DHT22;4779;48.062;11.672;2023-08-07T05:35:57;11.40;99.90
9482;DHT22;4779;48.062;11.672;2023-08-07T05:38:24;11.40;99.90
9482;DHT22;4779;48.062;11.672;2023-08-07T05:40:51;11.30;99.90
9482;DHT22;4779;48.062;11.672;2023-08-07T05:43:18;11.30;99.90
9482;DHT22;4779;48.062;11.672;2023-08-07T05:45:45;11.30;99.90
9482;DHT22;4779;48.062;11.672;2023-08-07T05:48:12;11.30;99.90
9482;DHT22;4779;48.062;11.672;2023-08-07T05:50:39;11.30;99.90
9482;DHT22;4779;48.062;11.672;2023-08-07T05:53:07;11.40;99.90
9482;DHT22;4779;48.062;11.672;2023-08-07T05:55:34;11.40;99.90
9482;DHT22;4779;48.062;11.672;2023-08-07T05:58:01;11.50;99.90
9482;DHT22;4779;48.062;11.672;2023-08-07T06:00:28;11.50;99.90
9482;DHT22;4779;48.062;11.672;2023-08-07T06:02:55;11.40;99.90
9482;DHT22;4779;48.062;11.672;2023-08-07T06:05:22;11.40;99.90
9482;DHT22;4779;48.062;11.672;2023-08-07T06:07:50;11.50;99.90
9482;DHT22;4779;48.062;11.672;2023-08-07T06:10:18;11.50;99.90
9482;DHT22;4779;48.062;11.672;2023-08-07T06:12:45;11.50;99.90
9482;DHT22;4779;48.062;11.672;2023-08-07T06:15:12;11.60;99.90
9482;DHT22;4779;48.062;11.672;2023-08-07T06:17:39;11.60;99.90
9482;DHT22;4779;48.062;11.672;2023-08-07T06:20:08;11.50;99.90
9482;DHT22;4779;48.062;11.672;2023-08-07T06:22:37;11.60;99.90
9482;DHT22;4779;48.062;11.672;2023-08-07T06:25:06;11.70;99.90
9482;DHT22;4779;48.062;11.672;2023-08-07T06:27:35;11.70;99.90
9482;DHT22;4779;48.062;11.672;2023-08-07T06:30:03;11.70;99.90
9482;DHT22;4779;48.062;11.672;2023-08-07T06:32:31;11.80;99.90
9482;DHT22;4779;48.062;11.672;2023-08-07T06:35:02;11.90;99.90
9482;DHT22;4779;48.062;11.672;2023-08-07T06:37:30;11.90;99.90
9482;DHT22;4779;48.062;11.672;2023-08-07T06:39:57;12.00;99.90
9482;DHT22;4779;48.062;11.672;2023-08-07T06:42:25;12.00;99.90
9482;DHT22;4779;48.062;11.672;2023-08-07T06:44:54;12.00;99.90
9482;DHT22;4779;48.062;11.672;2023-08-07T06:47:21;12.20;99.90
9482;DHT22;4779;48.062;11.672;2023-08-07T06:49:48;12.30;99.90
9482;DHT22;4779;48.062;11.672;2023-08-07T06:52:15;12.60;99.90
9482;DHT22;4779;48.062;11.672;2023-08-07T06:54:42;12.70;99.90
9482;DHT22;4779;48.062;11.672;2023-08-07T06:57:10;12.90;99.90
9482;DHT22;4779;48.062;11.672;2023-08-07T06:59:36;12.90;99.90
9482;DHT22;4779;48.062;11.672;2023-08-07T07:02:05;12.80;99.90
9482;DHT22;4779;48.062;11.672;2023-08-07T07:04:33;12.80;99.90
9482;DHT22;4779;48.062;11.672;2023-08-07T07:07:04;12.80;99.90
9482;DHT22;4779;48.062;11.672;2023-08-07T07:09:32;12.90;99.90
9482;DHT22;4779;48.062;11.672;2023-08-07T07:11:59;13.00;99.90
9482;DHT22;4779;48.062;11.672;2023-08-07T07:14:26;12.90;99.90
9482;DHT22;4779;48.062;11.672;2023-08-07T07:16:53;12.90;99.90
9482;DHT22;4779;48.062;11.672;2023-08-07T07:19:21;13.00;99.90
9482;DHT22;4779;48.062;11.672;2023-08-07T07:21:48;13.10;99.90
9482;DHT22;4779;48.062;11.672;2023-08-07T07:24:15;13.30;99.90
9482;DHT22;4779;48.062;11.672;2023-08-07T07:26:43;13.30;99.90
9482;DHT22;4779;48.062;11.672;2023-08-07T07:29:10;13.40;99.90
9482;DHT22;4779;48.062;11.672;2023-08-07T07:31:37;13.50;99.90
9482;DHT22;4779;48.062;11.672;2023-08-07T07:34:04;13.70;99.90
9482;DHT22;4779;48.062;11.672;2023-08-07T07:36:33;13.80;99.90
9482;DHT22;4779;48.062;11.672;2023-08-07T07:39:00;13.90;99.90
9482;DHT22;4779;48.062;11.672;2023-08-07T07:41:27;13.90;99.90
9482;DHT22;4779;48.062;11.672;2023-08-07T07:43:54;13.80;99.90
9482;DHT22;4779;48.062;11.672;2023-08-07T07:46:22;13.70;99.90
9482;DHT22;4779;48.062;11.672;2023-08-07T07:48:49;13.80;99.90
9482;DHT22;4779;48.062;11.672;2023-08-07T07:51:16;13.80;99.90
9482;DHT22;4779;48.062;11.672;2023-08-07T07:53:45;13.80;99.90
9482;DHT22;4779;48.062;11.672;2023-08-07T07:56:11;13.90;99.90
9482;DHT22;4779;48.062;11.672;2023-08-07T07:58:38;13.90;99.90
9482;DHT22;4779;48.062;11.672;2023-08-07T08:01:06;14.00;99.90
9482;DHT22;4779;48.062;11.672;2023-08-07T08:03:34;13.80;99.90
9482;DHT22;4779;48.062;11.672;2023-08-07T08:06:01;13.70;99.90
9482;DHT22;4779;48.062;11.672;2023-08-07T08:08:28;13.70;99.90
9482;DHT22;4779;48.062;11.672;2023-08-07T08:10:56;13.80;99.90
9482;DHT22;4779;48.062;11.672;2023-08-07T08:13:23;13.80;99.90
9482;DHT22;4779;48.062;11.672;2023-08-07T08:15:51;13.80;99.90
9482;DHT22;4779;48.062;11.672;2023-08-07T08:18:18;13.80;99.90
9482;DHT22;4779;48.062;11.672;2023-08-07T08:20:45;13.60;99.90
9482;DHT22;4779;48.062;11.672;2023-08-07T08:23:12;13.70;99.90
9482;DHT22;4779;48.062;11.672;2023-08-07T08:25:39;13.70;99.90
9482;DHT22;4779;48.062;11.672;2023-08-07T08:28:08;13.70;99.90
9482;DHT22;4779;48.062;11.672;2023-08-07T08:30:35;13.80;99.90
9482;DHT22;4779;48.062;11.672;2023-08-07T08:33:02;13.90;99.90
9482;DHT22;4779;48.062;11.672;2023-08-07T08:35:31;13.90;99.90
9482;DHT22;4779;48.062;11.672;2023-08-07T08:37:58;13.90;99.90
9482;DHT22;4779;48.062;11.672;2023-08-07T08:40:25;13.80;99.90
9482;DHT22;4779;48.062;11.672;2023-08-07T08:42:53;13.80;99.90
9482;DHT22;4779;48.062;11.672;2023-08-07T08:45:26;13.80;99.90
9482;DHT22;4779;48.062;11.672;2023-08-07T08:47:57;13.80;99.90
9482;DHT22;4779;48.062;11.672;2023-08-07T08:50:26;13.80;99.90
9482;DHT22;4779;48.062;11.672;2023-08-07T08:52:53;13.80;99.90
9482;DHT22;4779;48.062;11.672;2023-08-07T08:55:22;13.80;99.90
9482;DHT22;4779;48.062;11.672;2023-08-07T08:57:50;13.70;99.90
9482;DHT22;4779;48.062;11.672;2023-08-07T09:00:17;13.70;99.90
9482;DHT22;4779;48.062;11.672;2023-08-07T09:02:49;13.80;99.90
9482;DHT22;4779;48.062;11.672;2023-08-07T09:05:17;13.80;99.90
9482;DHT22;4779;48.062;11.672;2023-08-07T09:07:45;13.70;99.90
9482;DHT22;4779;48.062;11.672;2023-08-07T09:10:13;13.60;99.90
9482;DHT22;4779;48.062;11.672;2023-08-07T09:12:49;13.50;99.90
9482;DHT22;4779;48.062;11.672;2023-08-07T09:15:20;13.60;99.90
9482;DHT22;4779;48.062;11.672;2023-08-07T09:17:49;13.60;99.90
9482;DHT22;4779;48.062;11.672;2023-08-07T09:20:18;13.80;99.90
9482;DHT22;4779;48.062;11.672;2023-08-07T09:22:45;13.90;99.90
9482;DHT22;4779;48.062;11.672;2023-08-07T09:25:12;14.00;99.90
9482;DHT22;4779;48.062;11.672;2023-08-07T09:27:39;14.20;99.90
9482;DHT22;4779;48.062;11.672;2023-08-07T09:30:07;14.40;99.90
9482;DHT22;4779;48.062;11.672;2023-08-07T09:32:35;14.60;99.90
9482;DHT22;4779;48.062;11.672;2023-08-07T09:35:05;14.80;99.90
9482;DHT22;4779;48.062;11.672;2023-08-07T09:37:33;14.80;99.90
9482;DHT22;4779;48.062;11.672;2023-08-07T09:40:02;14.70;99.90
9482;DHT22;4779;48.062;11.672;2023-08-07T09:42:31;14.50;99.90
9482;DHT22;4779;48.062;11.672;2023-08-07T09:45:00;14.40;99.90
9482;DHT22;4779;48.062;11.672;2023-08-07T09:47:27;14.40;99.90
9482;DHT22;4779;48.062;11.672;2023-08-07T09:49:55;14.40;99.90
9482;DHT22;4779;48.062;11.672;2023-08-07T09:52:24;14.60;99.90
9482;DHT22;4779;48.062;11.672;2023-08-07T09:54:56;14.90;99.90
9482;DHT22;4779;48.062;11.672;2023-08-07T09:57:24;15.10;99.90
9482;DHT22;4779;48.062;11.672;2023-08-07T09:59:52;15.20;99.90
9482;DHT22;4779;48.062;11.672;2023-08-07T10:02:19;15.20;99.90
9482;DHT22;4779;48.062;11.672;2023-08-07T10:04:48;15.10;99.90
9482;DHT22;4779;48.062;11.672;2023-08-07T10:07:16;15.20;99.90
9482;DHT22;4779;48.062;11.672;2023-08-07T10:09:46;15.10;99.90
9482;DHT22;4779;48.062;11.672;2023-08-07T10:12:14;15.10;99.90
9482;DHT22;4779;48.062;11.672;2023-08-07T10:14:42;15.10;99.90
9482;DHT22;4779;48.062;11.672;2023-08-07T10:17:11;15.20;99.90
9482;DHT22;4779;48.062;11.672;2023-08-07T10:19:39;15.50;99.90
9482;DHT22;4779;48.062;11.672;2023-08-07T10:22:08;15.70;99.90
9482;DHT22;4779;48.062;11.672;2023-08-07T10:24:38;16.00;99.90
9482;DHT22;4779;48.062;11.672;2023-08-07T10:27:09;16.20;99.90
9482;DHT22;4779;48.062;11.672;2023-08-07T10:29:39;16.30;99.90
9482;DHT22;4779;48.062;11.672;2023-08-07T10:32:07;16.40;99.90
9482;DHT22;4779;48.062;11.672;2023-08-07T10:34:35;16.60;99.90
9482;DHT22;4779;48.062;11.672;2023-08-07T10:37:06;16.60;99.90
9482;DHT22;4779;48.062;11.672;2023-08-07T10:39:33;17.10;99.90
9482;DHT22;4779;48.062;11.672;2023-08-07T10:42:01;17.40;99.90
9482;DHT22;4779;48.062;11.672;2023-08-07T10:44:31;17.50;99.90
9482;DHT22;4779;48.062;11.672;2023-08-07T10:47:01;17.70;99.90
9482;DHT22;4779;48.062;11.672;2023-08-07T10:49:34;17.90;99.90
9482;DHT22;4779;48.062;11.672;2023-08-07T10:52:04;17.40;99.90
9482;DHT22;4779;48.062;11.672;2023-08-07T10:54:37;16.60;99.90
9482;DHT22;4779;48.062;11.672;2023-08-07T10:57:10;16.30;99.90
9482;DHT22;4779;48.062;11.672;2023-08-07T10:59:44;15.80;99.90
9482;DHT22;4779;48.062;11.672;2023-08-07T11:02:12;15.60;99.90
9482;DHT22;4779;48.062;11.672;2023-08-07T11:04:40;15.80;99.90
9482;DHT22;4779;48.062;11.672;2023-08-07T11:07:07;15.90;99.90
9482;DHT22;4779;48.062;11.672;2023-08-07T11:09:37;16.10;99.90
9482;DHT22;4779;48.062;11.672;2023-08-07T11:12:05;16.30;99.90
9482;DHT22;4779;48.062;11.672;2023-08-07T11:14:32;16.60;99.90
9482;DHT22;4779;48.062;11.672;2023-08-07T11:17:01;16.70;99.90
9482;DHT22;4779;48.062;11.672;2023-08-07T11:19:28;16.70;99.90
9482;DHT22;4779;48.062;11.672;2023-08-07T11:21:57;16.80;99.90
9482;DHT22;4779;48.062;11.672;2023-08-07T11:24:27;17.00;99.90
9482;DHT22;4779;48.062;11.672;2023-08-07T11:26:55;17.30;99.90
9482;DHT22;4779;48.062;11.672;2023-08-07T11:29:23;17.40;99.90
9482;DHT22;4779;48.062;11.672;2023-08-07T11:31:50;17.50;99.90
9482;DHT22;4779;48.062;11.672;2023-08-07T11:34:19;17.50;99.90
9482;DHT22;4779;48.062;11.672;2023-08-07T11:36:46;17.00;99.90
9482;DHT22;4779;48.062;11.672;2023-08-07T11:39:14;16.60;99.90
9482;DHT22;4779;48.062;11.672;2023-08-07T11:41:42;16.40;99.90
9482;DHT22;4779;48.062;11.672;2023-08-07T11:44:09;16.20;99.90
9482;DHT22;4779;48.062;11.672;2023-08-07T11:46:37;16.10;99.90
9482;DHT22;4779;48.062;11.672;2023-08-07T11:49:04;16.20;99.90
9482;DHT22;4779;48.062;11.672;2023-08-07T11:51:34;16.50;99.90
9482;DHT22;4779;48.062;11.672;2023-08-07T11:54:02;16.90;99.90
9482;DHT22;4779;48.062;11.672;2023-08-07T11:56:30;17.00;99.90
9482;DHT22;4779;48.062;11.672;2023-08-07T11:58:57;17.10;99.90
9482;DHT22;4779;48.062;11.672;2023-08-07T12:01:25;17.30;99.90
9482;DHT22;4779;48.062;11.672;2023-08-07T12:03:55;17.30;99.90
9482;DHT22;4779;48.062;11.672;2023-08-07T12:06:23;17.10;99.90
9482;DHT22;4779;48.062;11.672;2023-08-07T12:08:54;16.80;99.90
9482;DHT22;4779;48.062;11.672;2023-08-07T12:11:21;16.50;99.90
9482;DHT22;4779;48.062;11.672;2023-08-07T12:13:49;16.10;99.90
9482;DHT22;4779;48.062;11.672;2023-08-07T12:16:16;15.90;99.90
9482;DHT22;4779;48.062;11.672;2023-08-07T12:18:44;15.50;99.90
9482;DHT22;4779;48.062;11.672;2023-08-07T12:21:14;15.30;99.90
9482;DHT22;4779;48.062;11.672;2023-08-07T12:23:41;15.20;99.90
9482;DHT22;4779;48.062;11.672;2023-08-07T12:26:09;15.00;99.90
9482;DHT22;4779;48.062;11.672;2023-08-07T12:28:36;14.90;99.90
9482;DHT22;4779;48.062;11.672;2023-08-07T12:31:04;14.80;99.90
9482;DHT22;4779;48.062;11.672;2023-08-07T12:33:32;14.80;99.90
9482;DHT22;4779;48.062;11.672;2023-08-07T12:35:59;14.80;99.90
9482;DHT22;4779;48.062;11.672;2023-08-07T12:38:26;15.00;99.90
9482;DHT22;4779;48.062;11.672;2023-08-07T12:40:53;15.00;99.90
9482;DHT22;4779;48.062;11.672;2023-08-07T12:43:22;15.10;99.90
9482;DHT22;4779;48.062;11.672;2023-08-07T12:45:49;15.20;99.90
9482;DHT22;4779;48.062;11.672;2023-08-07T12:48:17;15.70;99.90
9482;DHT22;4779;48.062;11.672;2023-08-07T12:50:44;16.60;99.90
9482;DHT22;4779;48.062;11.672;2023-08-07T12:53:11;17.40;99.90
9482;DHT22;4779;48.062;11.672;2023-08-07T12:55:38;17.80;99.90
9482;DHT22;4779;48.062;11.672;2023-08-07T12:58:05;18.10;99.90
9482;DHT22;4779;48.062;11.672;2023-08-07T13:00:34;18.10;99.90
9482;DHT22;4779;48.062;11.672;2023-08-07T13:03:01;18.10;99.90
9482;DHT22;4779;48.062;11.672;2023-08-07T13:05:29;18.00;99.90
9482;DHT22;4779;48.062;11.672;2023-08-07T13:07:56;17.50;99.90
9482;DHT22;4779;48.062;11.672;2023-08-07T13:10:24;17.40;99.90
9482;DHT22;4779;48.062;11.672;2023-08-07T13:12:53;17.40;99.90
9482;DHT22;4779;48.062;11.672;2023-08-07T13:15:20;17.30;99.90
9482;DHT22;4779;48.062;11.672;2023-08-07T13:17:49;17.00;99.90
9482;DHT22;4779;48.062;11.672;2023-08-07T13:20:16;16.90;99.90
9482;DHT22;4779;48.062;11.672;2023-08-07T13:22:44;16.90;99.90
9482;DHT22;4779;48.062;11.672;2023-08-07T13:25:11;16.90;99.90
9482;DHT22;4779;48.062;11.672;2023-08-07T13:27:39;17.10;99.90
9482;DHT22;4779;48.062;11.672;2023-08-07T13:30:07;17.20;99.90
9482;DHT22;4779;48.062;11.672;2023-08-07T13:32:35;17.40;99.90
9482;DHT22;4779;48.062;11.672;2023-08-07T13:35:04;17.60;99.90
9482;DHT22;4779;48.062;11.672;2023-08-07T13:37:31;17.80;99.90
9482;DHT22;4779;48.062;11.672;2023-08-07T13:39:59;17.90;99.90
9482;DHT22;4779;48.062;11.672;2023-08-07T13:42:26;17.90;99.90
9482;DHT22;4779;48.062;11.672;2023-08-07T13:44:54;17.80;99.90
9482;DHT22;4779;48.062;11.672;2023-08-07T13:47:21;17.70;99.90
9482;DHT22;4779;48.062;11.672;2023-08-07T13:49:51;17.50;99.90
9482;DHT22;4779;48.062;11.672;2023-08-07T13:52:20;17.20;99.90
9482;DHT22;4779;48.062;11.672;2023-08-07T13:54:47;16.80;99.90
9482;DHT22;4779;48.062;11.672;2023-08-07T13:57:14;16.20;99.90
9482;DHT22;4779;48.062;11.672;2023-08-07T13:59:41;16.00;99.90
9482;DHT22;4779;48.062;11.672;2023-08-07T14:02:08;15.90;99.90
9482;DHT22;4779;48.062;11.672;2023-08-07T14:04:35;15.80;99.90
9482;DHT22;4779;48.062;11.672;2023-08-07T14:07:02;15.60;99.90
9482;DHT22;4779;48.062;11.672;2023-08-07T14:09:31;15.50;99.90
9482;DHT22;4779;48.062;11.672;2023-08-07T14:11:58;15.40;99.90
9482;DHT22;4779;48.062;11.672;2023-08-07T14:14:25;15.30;99.90
9482;DHT22;4779;48.062;11.672;2023-08-07T14:16:52;15.50;99.90
9482;DHT22;4779;48.062;11.672;2023-08-07T14:19:22;16.00;99.90
9482;DHT22;4779;48.062;11.672;2023-08-07T14:21:49;16.40;99.90
9482;DHT22;4779;48.062;11.672;2023-08-07T14:24:17;16.30;99.90
9482;DHT22;4779;48.062;11.672;2023-08-07T14:26:47;16.00;99.90
9482;DHT22;4779;48.062;11.672;2023-08-07T14:29:13;16.00;99.90
9482;DHT22;4779;48.062;11.672;2023-08-07T14:31:40;16.40;99.90
9482;DHT22;4779;48.062;11.672;2023-08-07T14:34:10;16.70;99.90
9482;DHT22;4779;48.062;11.672;2023-08-07T14:36:37;16.70;99.90
9482;DHT22;4779;48.062;11.672;2023-08-07T14:39:04;16.60;99.90
9482;DHT22;4779;48.062;11.672;2023-08-07T14:41:31;16.50;99.90
9482;DHT22;4779;48.062;11.672;2023-08-07T14:44:00;16.30;99.90
9482;DHT22;4779;48.062;11.672;2023-08-07T14:46:27;16.10;99.90
9482;DHT22;4779;48.062;11.672;2023-08-07T14:48:54;15.90;99.90
9482;DHT22;4779;48.062;11.672;2023-08-07T14:51:24;15.90;99.90
9482;DHT22;4779;48.062;11.672;2023-08-07T14:53:51;15.90;99.90
9482;DHT22;4779;48.062;11.672;2023-08-07T14:56:18;15.90;99.90
9482;DHT22;4779;48.062;11.672;2023-08-07T14:58:45;15.90;99.90
9482;DHT22;4779;48.062;11.672;2023-08-07T15:01:13;15.90;99.90
9482;DHT22;4779;48.062;11.672;2023-08-07T15:03:40;15.80;99.90
9482;DHT22;4779;48.062;11.672;2023-08-07T15:06:07;15.80;99.90
9482;DHT22;4779;48.062;11.672;2023-08-07T15:08:34;15.60;99.90
9482;DHT22;4779;48.062;11.672;2023-08-07T15:11:01;15.70;99.90
9482;DHT22;4779;48.062;11.672;2023-08-07T15:13:28;15.70;99.90
9482;DHT22;4779;48.062;11.672;2023-08-07T15:15:56;15.70;99.90
9482;DHT22;4779;48.062;11.672;2023-08-07T15:18:25;15.80;99.90
9482;DHT22;4779;48.062;11.672;2023-08-07T15:20:52;15.80;99.90
9482;DHT22;4779;48.062;11.672;2023-08-07T15:23:21;15.90;99.90
9482;DHT22;4779;48.062;11.672;2023-08-07T15:25:48;16.00;99.90
9482;DHT22;4779;48.062;11.672;2023-08-07T15:28:15;16.10;99.90
9482;DHT22;4779;48.062;11.672;2023-08-07T15:30:47;16.10;99.90
9482;DHT22;4779;48.062;11.672;2023-08-07T15:33:15;16.10;99.90
9482;DHT22;4779;48.062;11.672;2023-08-07T15:35:43;15.90;99.90
9482;DHT22;4779;48.062;11.672;2023-08-07T15:38:11;15.80;99.90
9482;DHT22;4779;48.062;11.672;2023-08-07T15:40:38;15.70;99.90
9482;DHT22;4779;48.062;11.672;2023-08-07T15:43:06;15.80;99.90
9482;DHT22;4779;48.062;11.672;2023-08-07T15:45:35;15.90;99.90
9482;DHT22;4779;48.062;11.672;2023-08-07T15:48:03;15.90;99.90